createdAt,value
2017-08-16T00:01:17.452Z,53.4
2017-08-16T00:06:23.200Z,53.3
2017-08-16T00:11:28.953Z,53.3
2017-08-16T00:16:34.730Z,53.3
2017-08-16T00:21:40.503Z,53.3
2017-08-16T00:26:46.253Z,53.3
2017-08-16T00:31:51.998Z,53.2
2017-08-16T00:36:56.754Z,53.2
2017-08-16T00:42:01.832Z,53.2
2017-08-16T00:47:06.922Z,53.2
2017-08-16T00:52:12.672Z,53.2
2017-08-16T00:57:18.089Z,53.2
2017-08-16T01:02:23.846Z,53.2
2017-08-16T01:07:29.600Z,53.2
2017-08-16T01:12:35.017Z,53.1
2017-08-16T01:17:41.164Z,53.1
2017-08-16T01:22:46.568Z,53.1
2017-08-16T01:27:52.665Z,53.1
2017-08-16T01:32:58.074Z,53.1
2017-08-16T01:38:03.817Z,53.1
2017-08-16T01:43:08.998Z,53.1
2017-08-16T01:48:15.082Z,53.1
2017-08-16T01:53:20.364Z,53
2017-08-16T01:58:26.111Z,53
2017-08-16T02:03:31.858Z,52.9
2017-08-16T02:08:37.602Z,52.9
2017-08-16T02:13:43.676Z,52.8
2017-08-16T02:18:49.087Z,52.7
2017-08-16T02:23:53.820Z,52.7
2017-08-16T02:28:59.230Z,52.7
2017-08-16T02:34:04.305Z,52.6
2017-08-16T02:39:09.714Z,52.6
2017-08-16T02:44:15.798Z,52.6
2017-08-16T02:49:21.872Z,52.5
2017-08-16T02:54:26.612Z,52.5
2017-08-16T02:59:32.357Z,52.5
2017-08-16T03:04:37.767Z,52.5
2017-08-16T03:09:43.175Z,52.5
2017-08-16T03:14:48.917Z,52.5
2017-08-16T03:19:54.330Z,52.4
2017-08-16T03:25:00.077Z,52.4
2017-08-16T03:30:05.153Z,52.5
2017-08-16T03:35:10.559Z,52.4
2017-08-16T03:40:15.638Z,52.4
2017-08-16T03:45:21.045Z,52.4
2017-08-16T03:50:26.793Z,52.4
2017-08-16T03:55:32.202Z,52.4
2017-08-16T04:00:37.608Z,52.4
2017-08-16T04:05:43.688Z,52.4
2017-08-16T04:10:49.771Z,52.4
2017-08-16T04:15:55.848Z,52.4
2017-08-16T04:21:01.596Z,52.4
2017-08-16T04:26:07.338Z,52.3
2017-08-16T04:31:13.087Z,52.4
2017-08-16T04:36:19.170Z,52.5
2017-08-16T04:41:25.255Z,52.6
2017-08-16T04:46:30.667Z,52.7
2017-08-16T04:51:36.410Z,52.9
2017-08-16T04:56:41.834Z,53
2017-08-16T05:01:47.580Z,53
2017-08-16T05:06:52.990Z,53.3
2017-08-16T05:11:58.735Z,53.5
2017-08-16T05:17:04.816Z,53.5
2017-08-16T05:22:10.575Z,53.5
2017-08-16T05:27:15.989Z,53.4
2017-08-16T05:32:21.063Z,53.4
2017-08-16T05:37:26.810Z,53.3
2017-08-16T05:42:32.219Z,53.2
2017-08-16T05:47:38.296Z,53.1
2017-08-16T05:52:43.707Z,52.9
2017-08-16T05:57:48.786Z,52.8
2017-08-16T06:02:54.196Z,52.6
2017-08-16T06:07:59.273Z,52.4
2017-08-16T06:13:05.025Z,52.4
2017-08-16T06:18:10.768Z,52.4
2017-08-16T06:23:16.178Z,52.3
2017-08-16T06:28:21.923Z,52.3
2017-08-16T06:33:27.669Z,52.2
2017-08-16T06:38:33.419Z,52.2
2017-08-16T06:43:38.833Z,52.1
2017-08-16T06:48:44.245Z,52
2017-08-16T06:53:49.326Z,52
2017-08-16T06:58:54.455Z,51.9
2017-08-16T07:04:00.538Z,52
2017-08-16T07:09:06.287Z,51.9
2017-08-16T07:14:12.035Z,51.8
2017-08-16T07:19:18.126Z,51.8
2017-08-16T07:24:22.865Z,51.7
2017-08-16T07:29:28.276Z,51.6
2017-08-16T07:34:33.753Z,51.6
2017-08-16T07:39:39.876Z,51.5
2017-08-16T07:44:44.952Z,51.5
2017-08-16T07:49:50.699Z,51.6
2017-08-16T07:54:56.446Z,51.6
2017-08-16T08:00:02.203Z,51.6
2017-08-16T08:05:06.938Z,51.5
2017-08-16T08:10:12.347Z,51.6
2017-08-16T08:15:17.425Z,51.2
2017-08-16T08:20:23.564Z,50.1
2017-08-16T08:25:28.984Z,48.9
2017-08-16T08:30:34.740Z,48.5
2017-08-16T08:35:40.496Z,48.3
2017-08-16T08:40:46.259Z,47.8
2017-08-16T08:45:50.682Z,46.7
2017-08-16T08:50:56.442Z,45.2
2017-08-16T08:56:02.208Z,45.5
2017-08-16T09:01:07.637Z,45.2
2017-08-16T09:06:13.068Z,45
2017-08-16T09:11:18.503Z,44.5
2017-08-16T09:16:24.598Z,45
2017-08-16T09:21:30.028Z,45.5
2017-08-16T09:26:35.455Z,45.5
2017-08-16T09:31:41.555Z,45.6
2017-08-16T09:36:47.321Z,45.2
2017-08-16T09:41:53.086Z,44.9
2017-08-16T09:46:58.521Z,44.5
2017-08-16T09:52:03.950Z,44.4
2017-08-16T09:57:09.720Z,44.3
2017-08-16T10:02:15.148Z,43.9
2017-08-16T10:07:20.580Z,44.3
2017-08-16T10:12:26.344Z,44.3
2017-08-16T10:17:31.774Z,44
2017-08-16T10:22:37.538Z,45.1
2017-08-16T10:27:43.637Z,45.4
2017-08-16T10:32:49.059Z,45.9
2017-08-16T10:37:54.483Z,46.5
2017-08-16T10:42:59.906Z,47.7
2017-08-16T10:48:05.719Z,47.4
2017-08-16T10:53:10.475Z,47.7
2017-08-16T10:58:15.898Z,48.5
2017-08-16T11:03:21.653Z,48.5
2017-08-16T11:08:27.074Z,49.4
2017-08-16T11:13:32.495Z,49
2017-08-16T11:18:38.585Z,48.5
2017-08-16T11:23:44.008Z,48.4
2017-08-16T11:28:49.435Z,48.3
2017-08-16T11:33:54.858Z,47.7
2017-08-16T11:39:00.612Z,48.1
2017-08-16T11:44:06.029Z,48.2
2017-08-16T11:49:11.784Z,48.4
2017-08-16T11:54:17.200Z,48.7
2017-08-16T11:59:21.949Z,49.5
2017-08-16T12:04:27.368Z,48.8
2017-08-16T12:09:33.125Z,46.6
2017-08-16T12:14:38.205Z,47.4
2017-08-16T12:19:43.626Z,47.3
2017-08-16T12:24:49.042Z,48
2017-08-16T12:29:53.801Z,47.3
2017-08-16T12:34:58.882Z,47.8
2017-08-16T12:40:04.964Z,46.9
2017-08-16T12:45:09.710Z,44.5
2017-08-16T12:50:15.125Z,46.7
2017-08-16T12:55:21.212Z,45.6
2017-08-16T13:00:26.296Z,42.4
2017-08-16T13:05:31.042Z,42.1
2017-08-16T13:10:36.126Z,41
2017-08-16T13:15:41.876Z,40.6
2017-08-16T13:20:46.959Z,41.4
2017-08-16T13:25:52.371Z,40.4
2017-08-16T13:30:58.456Z,40.1
2017-08-16T13:36:04.551Z,39.3
2017-08-16T13:41:09.631Z,39.7
2017-08-16T13:46:15.045Z,38.4
2017-08-16T13:51:21.177Z,38.5
2017-08-16T13:56:26.924Z,37.5
2017-08-16T14:01:32.002Z,38.5
2017-08-16T14:06:37.751Z,40.3
2017-08-16T14:11:43.167Z,40.5
2017-08-16T14:16:48.912Z,41.2
2017-08-16T14:21:55.096Z,41.6
2017-08-16T14:27:00.184Z,42.1
2017-08-16T14:32:05.597Z,41.8
2017-08-16T14:37:10.673Z,40
2017-08-16T14:42:16.080Z,39.9
2017-08-16T14:47:22.165Z,38.7
2017-08-16T14:52:27.437Z,36.7
2017-08-16T14:57:32.850Z,35.6
2017-08-16T15:02:37.928Z,36.1
2017-08-16T15:07:43.672Z,35.5
2017-08-16T15:12:49.088Z,35
2017-08-16T15:17:54.497Z,34.7
2017-08-16T15:23:00.579Z,34.1
2017-08-16T15:28:05.326Z,34.2
2017-08-16T15:33:10.737Z,34.8
2017-08-16T15:38:16.154Z,35.8
2017-08-16T15:43:21.231Z,35.5
2017-08-16T15:48:26.641Z,36.4
2017-08-16T15:53:31.383Z,37.1
2017-08-16T15:58:36.810Z,35.6
2017-08-16T16:03:42.551Z,35.4
2017-08-16T16:08:47.292Z,35.7
2017-08-16T16:13:53.035Z,35.7
2017-08-16T16:18:58.442Z,35.9
2017-08-16T16:24:04.528Z,35.7
2017-08-16T16:29:09.941Z,37
2017-08-16T16:34:15.352Z,37.7
2017-08-16T16:39:20.763Z,38.3
2017-08-16T16:44:25.838Z,38.5
2017-08-16T16:49:31.921Z,38.3
2017-08-16T16:54:37.668Z,38.6
2017-08-16T16:59:43.745Z,39.3
2017-08-16T17:04:49.489Z,40.4
2017-08-16T17:09:55.233Z,40.8
2017-08-16T17:14:59.975Z,40.7
2017-08-16T17:20:06.106Z,41.2
2017-08-16T17:25:11.180Z,41.5
2017-08-16T17:30:16.599Z,41.6
2017-08-16T17:35:22.005Z,41.8
2017-08-16T17:40:27.095Z,42.6
2017-08-16T17:45:32.504Z,43.2
2017-08-16T17:50:38.587Z,43
2017-08-16T17:55:44.005Z,43.4
2017-08-16T18:00:49.757Z,43.5
2017-08-16T18:05:55.844Z,43.8
2017-08-16T18:11:01.591Z,43.8
2017-08-16T18:16:07.349Z,43.7
2017-08-16T18:21:12.762Z,44
2017-08-16T18:26:17.850Z,43.9
2017-08-16T18:31:22.925Z,43.8
2017-08-16T18:36:28.341Z,43.7
2017-08-16T18:41:33.757Z,44
2017-08-16T18:46:39.174Z,44.5
2017-08-16T18:51:44.930Z,44.2
2017-08-16T18:56:51.017Z,44.2
2017-08-16T19:01:57.100Z,44.7
2017-08-16T19:07:03.182Z,45.2
2017-08-16T19:12:09.267Z,44.6
2017-08-16T19:17:14.676Z,44.5
2017-08-16T19:22:20.088Z,44.7
2017-08-16T19:27:25.162Z,44.8
2017-08-16T19:32:30.238Z,44.7
2017-08-16T19:37:35.313Z,44.6
2017-08-16T19:42:39.715Z,44.6
2017-08-16T19:47:45.455Z,44.6
2017-08-16T19:52:51.533Z,44.8
2017-08-16T19:57:56.943Z,44.8
2017-08-16T20:03:02.013Z,45
2017-08-16T20:08:07.086Z,44.9
2017-08-16T20:13:11.821Z,44.8
2017-08-16T20:18:17.571Z,44.9
2017-08-16T20:23:23.312Z,44.8
2017-08-16T20:28:28.389Z,44.8
2017-08-16T20:33:34.131Z,44.8
2017-08-16T20:38:39.540Z,44.8
2017-08-16T20:43:44.612Z,44.8
2017-08-16T20:48:50.354Z,45
2017-08-16T20:53:56.093Z,45.3
2017-08-16T20:59:02.203Z,45.4
2017-08-16T21:04:06.935Z,45.4
2017-08-16T21:09:13.028Z,45.5
2017-08-16T21:14:17.791Z,45.4
2017-08-16T21:19:23.899Z,45.5
2017-08-16T21:24:29.308Z,45.5
2017-08-16T21:29:34.731Z,45.6
2017-08-16T21:34:40.489Z,45.6
2017-08-16T21:39:46.246Z,45.6
2017-08-16T21:44:51.997Z,45.6
2017-08-16T21:49:57.411Z,45.6
2017-08-16T21:55:02.819Z,45.6
2017-08-16T22:00:07.892Z,45.6
2017-08-16T22:05:13.970Z,45.6
2017-08-16T22:10:19.380Z,45.7
2017-08-16T22:15:25.456Z,45.7
2017-08-16T22:20:31.199Z,45.7
2017-08-16T22:25:37.277Z,45.7
2017-08-16T22:30:42.693Z,45.7
2017-08-16T22:35:48.762Z,45.8
2017-08-16T22:40:54.171Z,45.8
2017-08-16T22:45:59.927Z,45.8
2017-08-16T22:51:05.333Z,45.8
2017-08-16T22:56:11.417Z,45.8
2017-08-16T23:01:17.162Z,45.8
2017-08-16T23:06:22.906Z,45.9
2017-08-16T23:11:28.008Z,45.9
2017-08-16T23:16:33.080Z,45.9
2017-08-16T23:21:38.152Z,45.9
2017-08-16T23:26:43.226Z,45.9
2017-08-16T23:31:48.969Z,46
2017-08-16T23:36:54.044Z,46
2017-08-16T23:41:59.451Z,46
2017-08-16T23:47:04.859Z,46
2017-08-16T23:52:09.933Z,46
2017-08-16T23:57:15.676Z,46
